sensor_id;sensor_type;location;lat;lon;timestamp;pressure;altitude;pressure_sealevel;temperature;humidity
66742;BME280;53654;54.152;19.432;2023-04-27T00:02:27;101441.79;;;4.41;66.55
66742;BME280;53654;54.152;19.432;2023-04-27T00:04:56;101446.13;;;4.41;66.50
66742;BME280;53654;54.152;19.432;2023-04-27T00:07:24;101449.06;;;4.41;66.66
66742;BME280;53654;54.152;19.432;2023-04-27T00:09:53;101448.85;;;4.40;66.55
66742;BME280;53654;54.152;19.432;2023-04-27T00:12:21;101447.61;;;4.39;66.77
66742;BME280;53654;54.152;19.432;2023-04-27T00:14:49;101452.23;;;4.37;66.66
66742;BME280;53654;54.152;19.432;2023-04-27T00:17:17;101453.05;;;4.36;66.90
66742;BME280;53654;54.152;19.432;2023-04-27T00:19:45;101450.40;;;4.34;67.17
66742;BME280;53654;54.152;19.432;2023-04-27T00:22:15;101451.27;;;4.33;67.17
66742;BME280;53654;54.152;19.432;2023-04-27T00:24:43;101449.83;;;4.31;66.86
66742;BME280;53654;54.152;19.432;2023-04-27T00:27:11;101453.08;;;4.31;67.00
66742;BME280;53654;54.152;19.432;2023-04-27T00:29:40;101451.48;;;4.29;67.12
66742;BME280;53654;54.152;19.432;2023-04-27T00:32:11;101456.64;;;4.28;67.31
66742;BME280;53654;54.152;19.432;2023-04-27T00:34:39;101457.23;;;4.25;67.24
66742;BME280;53654;54.152;19.432;2023-04-27T00:37:07;101461.79;;;4.27;67.49
66742;BME280;53654;54.152;19.432;2023-04-27T00:39:35;101465.02;;;4.26;67.36
66742;BME280;53654;54.152;19.432;2023-04-27T00:42:03;101466.91;;;4.25;67.58
66742;BME280;53654;54.152;19.432;2023-04-27T00:44:32;101462.93;;;4.25;67.36
66742;BME280;53654;54.152;19.432;2023-04-27T00:47:02;101468.27;;;4.24;67.65
66742;BME280;53654;54.152;19.432;2023-04-27T00:49:31;101467.23;;;4.24;67.59
66742;BME280;53654;54.152;19.432;2023-04-27T00:51:59;101468.58;;;4.23;67.56
66742;BME280;53654;54.152;19.432;2023-04-27T00:54:28;101472.40;;;4.24;67.54
66742;BME280;53654;54.152;19.432;2023-04-27T00:56:57;101473.95;;;4.24;67.65
66742;BME280;53654;54.152;19.432;2023-04-27T00:59:26;101475.85;;;4.23;67.89
66742;BME280;53654;54.152;19.432;2023-04-27T01:01:55;101474.59;;;4.21;67.59
66742;BME280;53654;54.152;19.432;2023-04-27T01:04:24;101476.74;;;4.18;67.98
66742;BME280;53654;54.152;19.432;2023-04-27T01:06:53;101477.34;;;4.15;68.01
66742;BME280;53654;54.152;19.432;2023-04-27T01:09:21;101477.33;;;4.14;67.84
66742;BME280;53654;54.152;19.432;2023-04-27T01:11:49;101477.33;;;4.14;68.39
66742;BME280;53654;54.152;19.432;2023-04-27T01:14:17;101477.00;;;4.15;68.59
66742;BME280;53654;54.152;19.432;2023-04-27T01:16:45;101478.52;;;4.14;68.38
66742;BME280;53654;54.152;19.432;2023-04-27T01:19:14;101480.71;;;4.12;68.32
66742;BME280;53654;54.152;19.432;2023-04-27T01:21:42;101485.11;;;4.09;68.29
66742;BME280;53654;54.152;19.432;2023-04-27T01:24:11;101485.02;;;4.06;68.25
66742;BME280;53654;54.152;19.432;2023-04-27T01:26:39;101486.34;;;4.04;68.64
66742;BME280;53654;54.152;19.432;2023-04-27T01:29:07;101482.30;;;4.02;68.67
66742;BME280;53654;54.152;19.432;2023-04-27T01:31:35;101480.16;;;4.00;68.74
66742;BME280;53654;54.152;19.432;2023-04-27T01:34:03;101480.48;;;3.99;68.92
66742;BME280;53654;54.152;19.432;2023-04-27T01:36:31;101483.35;;;3.97;68.63
66742;BME280;53654;54.152;19.432;2023-04-27T01:38:59;101486.73;;;3.94;68.56
66742;BME280;53654;54.152;19.432;2023-04-27T01:41:27;101484.66;;;3.94;69.01
66742;BME280;53654;54.152;19.432;2023-04-27T01:43:55;101485.84;;;3.93;68.40
66742;BME280;53654;54.152;19.432;2023-04-27T01:46:23;101487.20;;;3.92;68.64
66742;BME280;53654;54.152;19.432;2023-04-27T01:48:51;101487.36;;;3.92;69.05
66742;BME280;53654;54.152;19.432;2023-04-27T01:51:19;101491.64;;;3.91;69.02
66742;BME280;53654;54.152;19.432;2023-04-27T01:53:48;101489.17;;;3.89;69.19
66742;BME280;53654;54.152;19.432;2023-04-27T01:56:16;101495.21;;;3.89;69.25
66742;BME280;53654;54.152;19.432;2023-04-27T01:58:44;101495.05;;;3.90;69.11
66742;BME280;53654;54.152;19.432;2023-04-27T02:01:13;101494.36;;;3.89;69.42
66742;BME280;53654;54.152;19.432;2023-04-27T02:03:41;101497.80;;;3.89;69.41
66742;BME280;53654;54.152;19.432;2023-04-27T02:06:09;101495.70;;;3.88;69.47
66742;BME280;53654;54.152;19.432;2023-04-27T02:08:39;101496.54;;;3.87;69.26
66742;BME280;53654;54.152;19.432;2023-04-27T02:11:08;101494.23;;;3.85;69.59
66742;BME280;53654;54.152;19.432;2023-04-27T02:13:36;101496.25;;;3.84;69.57
66742;BME280;53654;54.152;19.432;2023-04-27T02:16:05;101495.48;;;3.81;69.28
66742;BME280;53654;54.152;19.432;2023-04-27T02:18:33;101499.06;;;3.80;69.66
66742;BME280;53654;54.152;19.432;2023-04-27T02:21:07;101502.06;;;3.76;69.62
66742;BME280;53654;54.152;19.432;2023-04-27T02:23:36;101500.75;;;3.73;69.71
66742;BME280;53654;54.152;19.432;2023-04-27T02:26:04;101506.27;;;3.73;69.67
66742;BME280;53654;54.152;19.432;2023-04-27T02:28:32;101504.24;;;3.74;69.81
66742;BME280;53654;54.152;19.432;2023-04-27T02:31:01;101504.13;;;3.76;70.18
66742;BME280;53654;54.152;19.432;2023-04-27T02:33:29;101504.88;;;3.78;69.79
66742;BME280;53654;54.152;19.432;2023-04-27T02:35:57;101508.02;;;3.79;69.65
66742;BME280;53654;54.152;19.432;2023-04-27T02:38:28;101505.86;;;3.82;69.40
66742;BME280;53654;54.152;19.432;2023-04-27T02:40:57;101507.59;;;3.82;69.15
66742;BME280;53654;54.152;19.432;2023-04-27T02:43:26;101506.57;;;3.83;69.28
66742;BME280;53654;54.152;19.432;2023-04-27T02:45:53;101504.63;;;3.81;69.36
66742;BME280;53654;54.152;19.432;2023-04-27T02:48:22;101504.56;;;3.79;69.61
66742;BME280;53654;54.152;19.432;2023-04-27T02:50:50;101506.77;;;3.78;69.73
66742;BME280;53654;54.152;19.432;2023-04-27T02:53:18;101508.80;;;3.77;69.62
66742;BME280;53654;54.152;19.432;2023-04-27T02:55:48;101511.30;;;3.74;69.53
66742;BME280;53654;54.152;19.432;2023-04-27T02:58:16;101511.55;;;3.71;69.83
66742;BME280;53654;54.152;19.432;2023-04-27T03:00:44;101512.09;;;3.66;69.96
66742;BME280;53654;54.152;19.432;2023-04-27T03:03:13;101515.35;;;3.65;70.10
66742;BME280;53654;54.152;19.432;2023-04-27T03:05:42;101517.53;;;3.64;70.12
66742;BME280;53654;54.152;19.432;2023-04-27T03:08:10;101519.55;;;3.62;70.19
66742;BME280;53654;54.152;19.432;2023-04-27T03:10:38;101516.73;;;3.61;70.28
66742;BME280;53654;54.152;19.432;2023-04-27T03:13:05;101519.41;;;3.58;70.53
66742;BME280;53654;54.152;19.432;2023-04-27T03:15:34;101517.47;;;3.56;70.52
66742;BME280;53654;54.152;19.432;2023-04-27T03:18:02;101519.63;;;3.53;70.52
66742;BME280;53654;54.152;19.432;2023-04-27T03:20:30;101520.92;;;3.51;70.71
66742;BME280;53654;54.152;19.432;2023-04-27T03:22:58;101521.63;;;3.51;71.13
66742;BME280;53654;54.152;19.432;2023-04-27T03:25:27;101524.36;;;3.50;71.12
66742;BME280;53654;54.152;19.432;2023-04-27T03:27:55;101526.91;;;3.49;71.16
66742;BME280;53654;54.152;19.432;2023-04-27T03:30:23;101524.98;;;3.48;71.36
66742;BME280;53654;54.152;19.432;2023-04-27T03:32:51;101526.89;;;3.49;71.21
66742;BME280;53654;54.152;19.432;2023-04-27T03:35:19;101527.43;;;3.49;71.43
66742;BME280;53654;54.152;19.432;2023-04-27T03:37:47;101528.48;;;3.50;71.47
66742;BME280;53654;54.152;19.432;2023-04-27T03:40:15;101533.00;;;3.51;71.48
66742;BME280;53654;54.152;19.432;2023-04-27T03:42:43;101536.98;;;3.51;71.52
66742;BME280;53654;54.152;19.432;2023-04-27T03:45:11;101534.91;;;3.51;71.48
66742;BME280;53654;54.152;19.432;2023-04-27T03:47:39;101539.55;;;3.50;71.39
66742;BME280;53654;54.152;19.432;2023-04-27T03:50:08;101540.58;;;3.50;71.58
66742;BME280;53654;54.152;19.432;2023-04-27T03:52:36;101544.53;;;3.50;71.49
66742;BME280;53654;54.152;19.432;2023-04-27T03:55:05;101547.30;;;3.50;71.87
66742;BME280;53654;54.152;19.432;2023-04-27T03:57:34;101548.05;;;3.52;71.83
66742;BME280;53654;54.152;19.432;2023-04-27T04:00:02;101550.04;;;3.55;71.81
66742;BME280;53654;54.152;19.432;2023-04-27T04:02:39;101550.64;;;3.58;71.73
66742;BME280;53654;54.152;19.432;2023-04-27T04:05:07;101553.05;;;3.63;71.94
66742;BME280;53654;54.152;19.432;2023-04-27T04:07:36;101557.91;;;3.69;71.95
66742;BME280;53654;54.152;19.432;2023-04-27T04:10:05;101555.43;;;3.72;71.88
66742;BME280;53654;54.152;19.432;2023-04-27T04:12:33;101558.91;;;3.78;72.13
66742;BME280;53654;54.152;19.432;2023-04-27T04:15:04;101562.83;;;3.88;71.83
66742;BME280;53654;54.152;19.432;2023-04-27T04:17:33;101559.14;;;3.96;71.53
66742;BME280;53654;54.152;19.432;2023-04-27T04:20:01;101566.64;;;4.04;71.31
66742;BME280;53654;54.152;19.432;2023-04-27T04:22:35;101570.88;;;4.13;71.52
66742;BME280;53654;54.152;19.432;2023-04-27T04:25:04;101575.27;;;4.21;71.36
66742;BME280;53654;54.152;19.432;2023-04-27T04:27:32;101572.47;;;4.32;71.29
66742;BME280;53654;54.152;19.432;2023-04-27T04:30:00;101571.92;;;4.42;71.23
66742;BME280;53654;54.152;19.432;2023-04-27T04:32:28;101577.29;;;4.54;70.78
66742;BME280;53654;54.152;19.432;2023-04-27T04:34:56;101573.83;;;4.66;70.39
66742;BME280;53654;54.152;19.432;2023-04-27T04:37:26;101573.48;;;4.78;70.29
66742;BME280;53654;54.152;19.432;2023-04-27T04:39:55;101573.98;;;4.96;69.82
66742;BME280;53654;54.152;19.432;2023-04-27T04:42:24;101574.45;;;5.65;69.60
66742;BME280;53654;54.152;19.432;2023-04-27T04:44:53;101574.48;;;6.66;67.54
66742;BME280;53654;54.152;19.432;2023-04-27T04:47:21;101575.01;;;7.68;64.96
66742;BME280;53654;54.152;19.432;2023-04-27T04:49:51;101568.73;;;8.74;62.39
66742;BME280;53654;54.152;19.432;2023-04-27T04:52:19;101570.42;;;9.73;59.47
66742;BME280;53654;54.152;19.432;2023-04-27T04:54:51;101564.25;;;10.65;56.60
66742;BME280;53654;54.152;19.432;2023-04-27T04:57:20;101565.70;;;11.51;54.01
66742;BME280;53654;54.152;19.432;2023-04-27T04:59:49;101564.27;;;12.24;51.60
66742;BME280;53654;54.152;19.432;2023-04-27T05:02:17;101561.04;;;12.91;50.07
66742;BME280;53654;54.152;19.432;2023-04-27T05:04:45;101562.73;;;13.57;48.26
66742;BME280;53654;54.152;19.432;2023-04-27T05:07:14;101560.78;;;14.18;46.81
66742;BME280;53654;54.152;19.432;2023-04-27T05:09:45;101562.64;;;14.72;45.30
66742;BME280;53654;54.152;19.432;2023-04-27T05:12:13;101558.35;;;15.16;43.84
66742;BME280;53654;54.152;19.432;2023-04-27T05:14:41;101562.45;;;15.49;43.02
66742;BME280;53654;54.152;19.432;2023-04-27T05:17:10;101565.63;;;15.83;42.30
66742;BME280;53654;54.152;19.432;2023-04-27T05:19:39;101569.00;;;16.11;41.69
66742;BME280;53654;54.152;19.432;2023-04-27T05:22:07;101566.14;;;16.22;40.93
66742;BME280;53654;54.152;19.432;2023-04-27T05:24:35;101566.03;;;16.00;40.84
66742;BME280;53654;54.152;19.432;2023-04-27T05:27:03;101570.86;;;15.95;41.10
66742;BME280;53654;54.152;19.432;2023-04-27T05:29:32;101568.14;;;15.80;41.13
66742;BME280;53654;54.152;19.432;2023-04-27T05:32:00;101571.85;;;15.68;41.17
66742;BME280;53654;54.152;19.432;2023-04-27T05:34:28;101572.11;;;15.73;41.01
66742;BME280;53654;54.152;19.432;2023-04-27T05:36:56;101573.73;;;16.03;41.02
66742;BME280;53654;54.152;19.432;2023-04-27T05:39:24;101569.36;;;16.38;40.49
66742;BME280;53654;54.152;19.432;2023-04-27T05:41:53;101573.98;;;16.81;40.07
66742;BME280;53654;54.152;19.432;2023-04-27T05:44:21;101573.50;;;17.19;39.73
66742;BME280;53654;54.152;19.432;2023-04-27T05:46:51;101574.94;;;17.56;39.07
66742;BME280;53654;54.152;19.432;2023-04-27T05:49:20;101575.52;;;17.53;38.77
66742;BME280;53654;54.152;19.432;2023-04-27T05:51:48;101571.70;;;17.12;38.77
66742;BME280;53654;54.152;19.432;2023-04-27T05:54:16;101570.61;;;16.82;39.19
66742;BME280;53654;54.152;19.432;2023-04-27T05:56:44;101574.94;;;16.32;39.74
66742;BME280;53654;54.152;19.432;2023-04-27T05:59:12;101581.11;;;15.83;40.54
66742;BME280;53654;54.152;19.432;2023-04-27T06:01:41;101581.75;;;15.39;41.67
66742;BME280;53654;54.152;19.432;2023-04-27T06:04:09;101581.29;;;15.10;42.73
66742;BME280;53654;54.152;19.432;2023-04-27T06:06:37;101583.79;;;14.81;43.46
66742;BME280;53654;54.152;19.432;2023-04-27T06:09:05;101593.91;;;14.71;43.98
66742;BME280;53654;54.152;19.432;2023-04-27T06:11:33;101593.98;;;14.80;44.05
66742;BME280;53654;54.152;19.432;2023-04-27T06:14:01;101591.82;;;14.98;43.71
66742;BME280;53654;54.152;19.432;2023-04-27T06:16:29;101591.67;;;15.33;43.70
66742;BME280;53654;54.152;19.432;2023-04-27T06:18:57;101588.27;;;15.38;43.47
66742;BME280;53654;54.152;19.432;2023-04-27T06:21:25;101590.14;;;15.55;43.00
66742;BME280;53654;54.152;19.432;2023-04-27T06:23:54;101593.13;;;16.00;42.53
66742;BME280;53654;54.152;19.432;2023-04-27T06:26:23;101590.84;;;16.47;41.87
66742;BME280;53654;54.152;19.432;2023-04-27T06:28:51;101582.41;;;16.82;40.76
66742;BME280;53654;54.152;19.432;2023-04-27T06:31:19;101578.80;;;17.02;40.79
66742;BME280;53654;54.152;19.432;2023-04-27T06:33:47;101578.27;;;16.94;41.01
66742;BME280;53654;54.152;19.432;2023-04-27T06:36:15;101581.43;;;16.79;41.22
66742;BME280;53654;54.152;19.432;2023-04-27T06:38:43;101583.93;;;16.59;41.51
66742;BME280;53654;54.152;19.432;2023-04-27T06:41:11;101585.75;;;16.46;41.40
66742;BME280;53654;54.152;19.432;2023-04-27T06:43:39;101591.56;;;16.28;41.65
66742;BME280;53654;54.152;19.432;2023-04-27T06:46:07;101593.65;;;16.00;41.97
66742;BME280;53654;54.152;19.432;2023-04-27T06:48:35;101594.00;;;15.69;42.77
66742;BME280;53654;54.152;19.432;2023-04-27T06:51:04;101596.07;;;15.34;42.77
66742;BME280;53654;54.152;19.432;2023-04-27T06:53:32;101598.40;;;14.92;43.47
66742;BME280;53654;54.152;19.432;2023-04-27T06:56:00;101601.11;;;14.57;44.57
66742;BME280;53654;54.152;19.432;2023-04-27T06:58:29;101606.55;;;14.21;45.10
66742;BME280;53654;54.152;19.432;2023-04-27T07:00:57;101608.29;;;13.84;45.78
66742;BME280;53654;54.152;19.432;2023-04-27T07:03:25;101608.17;;;13.53;46.51
66742;BME280;53654;54.152;19.432;2023-04-27T07:05:53;101606.56;;;13.34;47.37
66742;BME280;53654;54.152;19.432;2023-04-27T07:08:23;101598.91;;;13.20;48.59
66742;BME280;53654;54.152;19.432;2023-04-27T07:10:51;101598.41;;;13.14;48.85
66742;BME280;53654;54.152;19.432;2023-04-27T07:13:19;101596.14;;;13.11;49.33
66742;BME280;53654;54.152;19.432;2023-04-27T07:15:47;101598.10;;;13.04;48.58
66742;BME280;53654;54.152;19.432;2023-04-27T07:18:20;101598.36;;;12.88;48.86
66742;BME280;53654;54.152;19.432;2023-04-27T07:20:48;101600.69;;;12.75;49.33
66742;BME280;53654;54.152;19.432;2023-04-27T07:23:16;101601.43;;;12.63;49.31
66742;BME280;53654;54.152;19.432;2023-04-27T07:25:44;101606.55;;;12.52;49.34
66742;BME280;53654;54.152;19.432;2023-04-27T07:28:13;101606.92;;;12.41;49.04
66742;BME280;53654;54.152;19.432;2023-04-27T07:30:41;101613.08;;;12.28;48.94
66742;BME280;53654;54.152;19.432;2023-04-27T07:33:10;101615.19;;;12.15;49.62
66742;BME280;53654;54.152;19.432;2023-04-27T07:35:38;101612.40;;;12.05;49.95
66742;BME280;53654;54.152;19.432;2023-04-27T07:38:06;101612.41;;;11.95;50.36
66742;BME280;53654;54.152;19.432;2023-04-27T07:40:35;101615.02;;;11.85;50.83
66742;BME280;53654;54.152;19.432;2023-04-27T07:43:03;101617.80;;;11.74;51.40
66742;BME280;53654;54.152;19.432;2023-04-27T07:45:32;101616.04;;;11.64;52.03
66742;BME280;53654;54.152;19.432;2023-04-27T07:48:00;101613.41;;;11.58;52.29
66742;BME280;53654;54.152;19.432;2023-04-27T07:50:29;101618.81;;;11.51;51.83
66742;BME280;53654;54.152;19.432;2023-04-27T07:52:58;101613.39;;;11.43;51.87
66742;BME280;53654;54.152;19.432;2023-04-27T07:55:26;101614.60;;;11.41;52.07
66742;BME280;53654;54.152;19.432;2023-04-27T07:57:55;101616.00;;;11.42;52.09
66742;BME280;53654;54.152;19.432;2023-04-27T08:00:25;101618.30;;;11.51;51.73
66742;BME280;53654;54.152;19.432;2023-04-27T08:02:53;101623.90;;;11.62;51.09
66742;BME280;53654;54.152;19.432;2023-04-27T08:05:22;101626.18;;;11.71;49.95
66742;BME280;53654;54.152;19.432;2023-04-27T08:07:51;101619.91;;;11.77;49.60
66742;BME280;53654;54.152;19.432;2023-04-27T08:10:21;101625.70;;;11.86;49.53
66742;BME280;53654;54.152;19.432;2023-04-27T08:12:50;101624.65;;;11.92;48.94
66742;BME280;53654;54.152;19.432;2023-04-27T08:15:19;101629.19;;;11.93;47.42
66742;BME280;53654;54.152;19.432;2023-04-27T08:17:47;101631.81;;;11.92;46.60
66742;BME280;53654;54.152;19.432;2023-04-27T08:20:15;101634.79;;;11.93;47.08
66742;BME280;53654;54.152;19.432;2023-04-27T08:22:43;101635.31;;;11.95;46.76
66742;BME280;53654;54.152;19.432;2023-04-27T08:25:11;101633.04;;;11.97;46.49
66742;BME280;53654;54.152;19.432;2023-04-27T08:27:39;101631.81;;;12.08;46.98
66742;BME280;53654;54.152;19.432;2023-04-27T08:30:08;101633.02;;;12.22;47.16
66742;BME280;53654;54.152;19.432;2023-04-27T08:32:36;101635.09;;;12.40;47.43
66742;BME280;53654;54.152;19.432;2023-04-27T08:35:05;101634.20;;;12.52;47.05
66742;BME280;53654;54.152;19.432;2023-04-27T08:37:33;101636.96;;;12.64;46.68
66742;BME280;53654;54.152;19.432;2023-04-27T08:40:05;101637.47;;;12.70;45.83
66742;BME280;53654;54.152;19.432;2023-04-27T08:42:35;101638.36;;;12.65;45.29
66742;BME280;53654;54.152;19.432;2023-04-27T08:45:05;101640.48;;;12.60;46.10
66742;BME280;53654;54.152;19.432;2023-04-27T08:47:37;101641.16;;;12.66;47.00
66742;BME280;53654;54.152;19.432;2023-04-27T08:50:11;101634.98;;;12.78;47.12
66742;BME280;53654;54.152;19.432;2023-04-27T08:52:43;101630.20;;;12.95;47.54
66742;BME280;53654;54.152;19.432;2023-04-27T08:55:11;101628.70;;;13.16;46.53
66742;BME280;53654;54.152;19.432;2023-04-27T08:57:56;101624.21;;;13.40;45.06
66742;BME280;53654;54.152;19.432;2023-04-27T09:00:25;101629.49;;;13.63;43.67
66742;BME280;53654;54.152;19.432;2023-04-27T09:02:54;101622.16;;;13.83;42.37
66742;BME280;53654;54.152;19.432;2023-04-27T09:05:22;101623.91;;;14.04;42.10
66742;BME280;53654;54.152;19.432;2023-04-27T09:08:00;101627.39;;;14.26;41.67
66742;BME280;53654;54.152;19.432;2023-04-27T09:10:49;101619.36;;;14.40;41.00
66742;BME280;53654;54.152;19.432;2023-04-27T09:13:17;101622.56;;;14.35;39.15
66742;BME280;53654;54.152;19.432;2023-04-27T09:18:18;101621.80;;;14.04;37.36
66742;BME280;53654;54.152;19.432;2023-04-27T09:20:52;101626.19;;;13.83;37.68
66742;BME280;53654;54.152;19.432;2023-04-27T09:23:30;101627.17;;;13.68;39.30
66742;BME280;53654;54.152;19.432;2023-04-27T09:26:00;101624.39;;;13.66;41.37
66742;BME280;53654;54.152;19.432;2023-04-27T09:28:29;101621.00;;;13.73;41.19
66742;BME280;53654;54.152;19.432;2023-04-27T09:31:00;101616.75;;;13.78;40.84
66742;BME280;53654;54.152;19.432;2023-04-27T09:33:30;101619.17;;;13.82;40.69
66742;BME280;53654;54.152;19.432;2023-04-27T09:36:00;101617.63;;;13.79;39.14
66742;BME280;53654;54.152;19.432;2023-04-27T09:38:29;101618.93;;;13.69;40.00
66742;BME280;53654;54.152;19.432;2023-04-27T09:40:59;101623.58;;;13.56;40.50
66742;BME280;53654;54.152;19.432;2023-04-27T09:43:28;101631.57;;;13.41;40.15
66742;BME280;53654;54.152;19.432;2023-04-27T09:45:57;101645.71;;;13.16;40.81
66742;BME280;53654;54.152;19.432;2023-04-27T09:48:25;101664.22;;;12.82;44.64
66742;BME280;53654;54.152;19.432;2023-04-27T09:50:53;101678.48;;;12.41;47.98
66742;BME280;53654;54.152;19.432;2023-04-27T09:58:54;101696.30;;;11.22;54.27
66742;BME280;53654;54.152;19.432;2023-04-27T10:01:39;101693.65;;;10.79;55.39
66742;BME280;53654;54.152;19.432;2023-04-27T10:07:06;101684.83;;;10.20;57.11
66742;BME280;53654;54.152;19.432;2023-04-27T10:09:36;101683.15;;;10.10;58.68
66742;BME280;53654;54.152;19.432;2023-04-27T10:12:26;101680.30;;;10.03;58.91
66742;BME280;53654;54.152;19.432;2023-04-27T10:14:56;101674.39;;;10.04;60.00
66742;BME280;53654;54.152;19.432;2023-04-27T10:22:46;101668.50;;;10.27;59.91
66742;BME280;53654;54.152;19.432;2023-04-27T10:25:24;101666.91;;;10.43;59.76
66742;BME280;53654;54.152;19.432;2023-04-27T10:28:01;101666.32;;;10.60;58.31
66742;BME280;53654;54.152;19.432;2023-04-27T10:30:32;101660.09;;;10.71;57.44
66742;BME280;53654;54.152;19.432;2023-04-27T10:33:08;101653.69;;;10.81;58.07
66742;BME280;53654;54.152;19.432;2023-04-27T10:35:39;101646.59;;;10.91;57.77
66742;BME280;53654;54.152;19.432;2023-04-27T10:38:10;101637.73;;;11.02;56.07
66742;BME280;53654;54.152;19.432;2023-04-27T10:40:56;101644.02;;;11.04;55.64
66742;BME280;53654;54.152;19.432;2023-04-27T10:43:27;101642.77;;;10.99;55.88
66742;BME280;53654;54.152;19.432;2023-04-27T10:46:12;101642.61;;;11.01;56.43
66742;BME280;53654;54.152;19.432;2023-04-27T10:48:42;101645.06;;;11.02;54.84
66742;BME280;53654;54.152;19.432;2023-04-27T10:51:14;101650.65;;;11.05;54.01
66742;BME280;53654;54.152;19.432;2023-04-27T10:53:44;101649.98;;;11.09;54.14
66742;BME280;53654;54.152;19.432;2023-04-27T10:56:13;101648.60;;;11.15;54.42
66742;BME280;53654;54.152;19.432;2023-04-27T10:58:41;101645.45;;;11.15;53.77
66742;BME280;53654;54.152;19.432;2023-04-27T11:01:25;101648.44;;;11.18;53.90
66742;BME280;53654;54.152;19.432;2023-04-27T11:04:00;101646.67;;;11.12;53.29
66742;BME280;53654;54.152;19.432;2023-04-27T11:06:29;101652.77;;;11.08;53.87
66742;BME280;53654;54.152;19.432;2023-04-27T11:08:57;101653.62;;;11.04;53.69
66742;BME280;53654;54.152;19.432;2023-04-27T11:11:26;101651.16;;;10.98;53.52
66742;BME280;53654;54.152;19.432;2023-04-27T11:13:54;101664.71;;;10.87;53.19
66742;BME280;53654;54.152;19.432;2023-04-27T11:16:25;101677.20;;;10.73;53.71
66742;BME280;53654;54.152;19.432;2023-04-27T11:18:53;101688.65;;;10.59;54.26
66742;BME280;53654;54.152;19.432;2023-04-27T11:21:21;101683.31;;;10.46;56.15
66742;BME280;53654;54.152;19.432;2023-04-27T11:23:50;101681.98;;;10.33;56.40
66742;BME280;53654;54.152;19.432;2023-04-27T11:26:20;101685.85;;;10.18;56.81
66742;BME280;53654;54.152;19.432;2023-04-27T11:31:27;101673.68;;;9.82;57.85
66742;BME280;53654;54.152;19.432;2023-04-27T11:33:55;101680.20;;;9.72;59.26
66742;BME280;53654;54.152;19.432;2023-04-27T11:36:23;101706.33;;;9.56;59.14
66742;BME280;53654;54.152;19.432;2023-04-27T11:38:57;101719.39;;;9.41;61.13
66742;BME280;53654;54.152;19.432;2023-04-27T11:41:35;101729.91;;;9.17;61.54
66742;BME280;53654;54.152;19.432;2023-04-27T11:44:08;101744.95;;;8.84;62.16
66742;BME280;53654;54.152;19.432;2023-04-27T11:46:37;101748.77;;;8.60;63.28
66742;BME280;53654;54.152;19.432;2023-04-27T11:49:06;101740.80;;;8.40;63.93
66742;BME280;53654;54.152;19.432;2023-04-27T11:51:38;101755.61;;;8.24;65.00
66742;BME280;53654;54.152;19.432;2023-04-27T11:54:07;101769.45;;;8.10;66.03
66742;BME280;53654;54.152;19.432;2023-04-27T11:56:40;101764.04;;;7.99;66.79
66742;BME280;53654;54.152;19.432;2023-04-27T11:59:21;101757.24;;;7.89;67.44
66742;BME280;53654;54.152;19.432;2023-04-27T12:01:54;101752.12;;;7.84;67.80
66742;BME280;53654;54.152;19.432;2023-04-27T12:04:22;101746.60;;;7.86;68.67
66742;BME280;53654;54.152;19.432;2023-04-27T12:06:50;101750.73;;;7.94;69.20
66742;BME280;53654;54.152;19.432;2023-04-27T12:09:18;101748.52;;;8.06;70.09
66742;BME280;53654;54.152;19.432;2023-04-27T12:11:47;101742.52;;;8.20;70.37
66742;BME280;53654;54.152;19.432;2023-04-27T12:14:15;101739.96;;;8.32;70.08
66742;BME280;53654;54.152;19.432;2023-04-27T12:16:43;101742.60;;;8.44;69.65
66742;BME280;53654;54.152;19.432;2023-04-27T12:19:12;101743.29;;;8.54;69.70
66742;BME280;53654;54.152;19.432;2023-04-27T12:21:40;101744.17;;;8.67;69.77
66742;BME280;53654;54.152;19.432;2023-04-27T12:24:09;101743.80;;;8.77;68.60
66742;BME280;53654;54.152;19.432;2023-04-27T12:26:38;101734.47;;;8.81;67.07
66742;BME280;53654;54.152;19.432;2023-04-27T12:29:06;101734.90;;;8.87;67.36
66742;BME280;53654;54.152;19.432;2023-04-27T12:31:34;101736.60;;;8.97;67.74
66742;BME280;53654;54.152;19.432;2023-04-27T12:34:03;101739.67;;;9.05;66.23
66742;BME280;53654;54.152;19.432;2023-04-27T12:36:31;101737.15;;;9.12;65.74
66742;BME280;53654;54.152;19.432;2023-04-27T12:41:43;101734.09;;;9.31;65.31
66742;BME280;53654;54.152;19.432;2023-04-27T12:44:12;101737.02;;;9.42;61.75
66742;BME280;53654;54.152;19.432;2023-04-27T12:46:42;101733.48;;;9.52;61.71
66742;BME280;53654;54.152;19.432;2023-04-27T12:49:10;101733.90;;;9.60;61.21
66742;BME280;53654;54.152;19.432;2023-04-27T12:51:39;101730.99;;;9.64;59.60
66742;BME280;53654;54.152;19.432;2023-04-27T12:54:08;101729.78;;;9.64;57.73
66742;BME280;53654;54.152;19.432;2023-04-27T12:56:37;101726.50;;;9.68;57.88
66742;BME280;53654;54.152;19.432;2023-04-27T12:59:05;101720.61;;;9.72;58.43
66742;BME280;53654;54.152;19.432;2023-04-27T13:01:34;101728.00;;;9.78;58.02
66742;BME280;53654;54.152;19.432;2023-04-27T13:04:03;101727.87;;;9.82;56.78
66742;BME280;53654;54.152;19.432;2023-04-27T13:06:32;101729.27;;;9.82;55.51
66742;BME280;53654;54.152;19.432;2023-04-27T13:09:01;101732.96;;;9.86;56.83
66742;BME280;53654;54.152;19.432;2023-04-27T13:11:29;101735.44;;;9.89;55.30
66742;BME280;53654;54.152;19.432;2023-04-27T13:13:58;101738.61;;;9.93;54.01
66742;BME280;53654;54.152;19.432;2023-04-27T13:16:26;101741.10;;;9.98;54.45
66742;BME280;53654;54.152;19.432;2023-04-27T13:18:54;101749.51;;;10.01;54.17